sensor_id;sensor_type;location;lat;lon;timestamp;P1;durP1;ratioP1;P2;durP2;ratioP2
65691;SDS011;52411;52.716;6.696;2023-12-20T00:01:46;7.30;;;2.00;;
65691;SDS011;52411;52.716;6.696;2023-12-20T00:04:12;13.38;;;2.00;;
65691;SDS011;52411;52.716;6.696;2023-12-20T00:06:37;12.38;;;2.35;;
65691;SDS011;52411;52.716;6.696;2023-12-20T00:09:03;10.45;;;2.35;;
65691;SDS011;52411;52.716;6.696;2023-12-20T00:11:28;13.32;;;2.45;;
65691;SDS011;52411;52.716;6.696;2023-12-20T00:13:54;11.63;;;2.47;;
65691;SDS011;52411;52.716;6.696;2023-12-20T00:16:19;14.95;;;2.83;;
65691;SDS011;52411;52.716;6.696;2023-12-20T00:18:45;8.15;;;2.20;;
65691;SDS011;52411;52.716;6.696;2023-12-20T00:21:10;11.93;;;2.30;;
65691;SDS011;52411;52.716;6.696;2023-12-20T00:23:36;9.50;;;2.15;;
65691;SDS011;52411;52.716;6.696;2023-12-20T00:26:02;14.75;;;2.33;;
65691;SDS011;52411;52.716;6.696;2023-12-20T00:28:27;12.07;;;2.63;;
65691;SDS011;52411;52.716;6.696;2023-12-20T00:30:53;13.00;;;2.50;;
65691;SDS011;52411;52.716;6.696;2023-12-20T00:33:18;11.38;;;1.98;;
65691;SDS011;52411;52.716;6.696;2023-12-20T00:35:44;8.75;;;2.22;;
65691;SDS011;52411;52.716;6.696;2023-12-20T00:38:10;11.40;;;2.40;;
65691;SDS011;52411;52.716;6.696;2023-12-20T00:40:36;11.27;;;2.53;;
65691;SDS011;52411;52.716;6.696;2023-12-20T00:43:02;17.55;;;2.60;;
65691;SDS011;52411;52.716;6.696;2023-12-20T00:45:28;8.95;;;1.90;;
65691;SDS011;52411;52.716;6.696;2023-12-20T00:47:53;8.88;;;2.40;;
65691;SDS011;52411;52.716;6.696;2023-12-20T00:50:19;10.52;;;2.47;;
65691;SDS011;52411;52.716;6.696;2023-12-20T00:52:46;14.82;;;2.97;;
65691;SDS011;52411;52.716;6.696;2023-12-20T00:55:12;8.82;;;2.17;;
65691;SDS011;52411;52.716;6.696;2023-12-20T00:57:38;7.90;;;2.28;;
65691;SDS011;52411;52.716;6.696;2023-12-20T01:00:03;12.10;;;2.53;;
65691;SDS011;52411;52.716;6.696;2023-12-20T01:02:30;12.73;;;2.55;;
65691;SDS011;52411;52.716;6.696;2023-12-20T01:04:55;10.90;;;2.33;;
65691;SDS011;52411;52.716;6.696;2023-12-20T01:07:21;11.63;;;2.33;;
65691;SDS011;52411;52.716;6.696;2023-12-20T01:09:46;14.27;;;2.45;;
65691;SDS011;52411;52.716;6.696;2023-12-20T01:12:12;6.82;;;2.20;;
65691;SDS011;52411;52.716;6.696;2023-12-20T01:14:37;10.48;;;2.40;;
65691;SDS011;52411;52.716;6.696;2023-12-20T01:17:04;9.95;;;2.47;;
65691;SDS011;52411;52.716;6.696;2023-12-20T01:19:30;14.10;;;2.70;;
65691;SDS011;52411;52.716;6.696;2023-12-20T01:21:55;13.52;;;2.85;;
65691;SDS011;52411;52.716;6.696;2023-12-20T01:24:21;19.27;;;2.58;;
65691;SDS011;52411;52.716;6.696;2023-12-20T01:26:46;15.32;;;2.72;;
65691;SDS011;52411;52.716;6.696;2023-12-20T01:29:12;11.60;;;2.00;;
65691;SDS011;52411;52.716;6.696;2023-12-20T01:31:39;10.73;;;2.70;;
65691;SDS011;52411;52.716;6.696;2023-12-20T01:34:05;11.95;;;2.58;;
65691;SDS011;52411;52.716;6.696;2023-12-20T01:36:31;13.93;;;2.45;;
65691;SDS011;52411;52.716;6.696;2023-12-20T01:38:56;11.02;;;2.20;;
65691;SDS011;52411;52.716;6.696;2023-12-20T01:41:22;12.18;;;2.40;;
65691;SDS011;52411;52.716;6.696;2023-12-20T01:43:48;10.88;;;2.55;;
65691;SDS011;52411;52.716;6.696;2023-12-20T01:46:13;9.43;;;2.58;;
65691;SDS011;52411;52.716;6.696;2023-12-20T01:48:40;9.35;;;2.50;;
65691;SDS011;52411;52.716;6.696;2023-12-20T01:51:06;15.95;;;2.45;;
65691;SDS011;52411;52.716;6.696;2023-12-20T01:53:31;8.45;;;2.63;;
65691;SDS011;52411;52.716;6.696;2023-12-20T01:55:57;10.98;;;2.28;;
65691;SDS011;52411;52.716;6.696;2023-12-20T01:58:24;7.70;;;2.22;;
65691;SDS011;52411;52.716;6.696;2023-12-20T02:00:50;12.73;;;2.60;;
65691;SDS011;52411;52.716;6.696;2023-12-20T02:03:16;15.73;;;3.13;;
65691;SDS011;52411;52.716;6.696;2023-12-20T02:05:43;13.55;;;2.55;;
65691;SDS011;52411;52.716;6.696;2023-12-20T02:08:09;14.88;;;2.50;;
65691;SDS011;52411;52.716;6.696;2023-12-20T02:10:35;14.38;;;2.80;;
65691;SDS011;52411;52.716;6.696;2023-12-20T02:13:00;15.43;;;2.90;;
65691;SDS011;52411;52.716;6.696;2023-12-20T02:15:26;14.43;;;2.80;;
65691;SDS011;52411;52.716;6.696;2023-12-20T02:17:51;15.80;;;2.67;;
65691;SDS011;52411;52.716;6.696;2023-12-20T02:20:17;16.08;;;3.38;;
65691;SDS011;52411;52.716;6.696;2023-12-20T02:22:43;16.13;;;2.80;;
65691;SDS011;52411;52.716;6.696;2023-12-20T02:25:08;13.95;;;2.75;;
65691;SDS011;52411;52.716;6.696;2023-12-20T02:27:34;18.88;;;3.20;;
65691;SDS011;52411;52.716;6.696;2023-12-20T02:30:00;15.30;;;2.83;;
65691;SDS011;52411;52.716;6.696;2023-12-20T02:32:25;14.48;;;2.97;;
65691;SDS011;52411;52.716;6.696;2023-12-20T02:34:51;12.68;;;3.20;;
65691;SDS011;52411;52.716;6.696;2023-12-20T02:37:17;19.42;;;2.45;;
65691;SDS011;52411;52.716;6.696;2023-12-20T02:39:42;19.88;;;2.88;;
65691;SDS011;52411;52.716;6.696;2023-12-20T02:42:08;10.90;;;2.70;;
65691;SDS011;52411;52.716;6.696;2023-12-20T02:44:33;15.57;;;2.55;;
65691;SDS011;52411;52.716;6.696;2023-12-20T02:46:59;10.90;;;2.55;;
65691;SDS011;52411;52.716;6.696;2023-12-20T02:49:24;12.80;;;2.72;;
65691;SDS011;52411;52.716;6.696;2023-12-20T02:51:50;12.65;;;2.60;;
65691;SDS011;52411;52.716;6.696;2023-12-20T02:54:15;10.98;;;2.60;;
65691;SDS011;52411;52.716;6.696;2023-12-20T02:56:41;12.02;;;2.92;;
65691;SDS011;52411;52.716;6.696;2023-12-20T02:59:07;12.82;;;3.30;;
65691;SDS011;52411;52.716;6.696;2023-12-20T03:01:33;17.77;;;2.80;;
65691;SDS011;52411;52.716;6.696;2023-12-20T03:03:59;17.13;;;3.40;;
65691;SDS011;52411;52.716;6.696;2023-12-20T03:06:25;14.50;;;2.97;;
65691;SDS011;52411;52.716;6.696;2023-12-20T03:08:51;16.08;;;2.90;;
65691;SDS011;52411;52.716;6.696;2023-12-20T03:11:17;13.27;;;3.10;;
65691;SDS011;52411;52.716;6.696;2023-12-20T03:13:42;18.42;;;3.53;;
65691;SDS011;52411;52.716;6.696;2023-12-20T03:16:08;21.20;;;3.08;;
65691;SDS011;52411;52.716;6.696;2023-12-20T03:18:35;19.63;;;3.90;;
65691;SDS011;52411;52.716;6.696;2023-12-20T03:21:00;15.30;;;2.83;;
65691;SDS011;52411;52.716;6.696;2023-12-20T03:23:26;18.30;;;3.25;;
65691;SDS011;52411;52.716;6.696;2023-12-20T03:25:52;12.68;;;3.13;;
65691;SDS011;52411;52.716;6.696;2023-12-20T03:28:18;14.25;;;2.97;;
65691;SDS011;52411;52.716;6.696;2023-12-20T03:30:44;17.02;;;3.30;;
65691;SDS011;52411;52.716;6.696;2023-12-20T03:33:09;19.13;;;3.97;;
65691;SDS011;52411;52.716;6.696;2023-12-20T03:35:35;19.08;;;3.42;;
65691;SDS011;52411;52.716;6.696;2023-12-20T03:38:00;17.40;;;3.45;;
65691;SDS011;52411;52.716;6.696;2023-12-20T03:40:26;14.43;;;3.15;;
65691;SDS011;52411;52.716;6.696;2023-12-20T03:42:52;19.60;;;3.65;;
65691;SDS011;52411;52.716;6.696;2023-12-20T03:45:17;19.23;;;3.65;;
65691;SDS011;52411;52.716;6.696;2023-12-20T03:47:43;13.38;;;3.00;;
65691;SDS011;52411;52.716;6.696;2023-12-20T03:50:08;21.55;;;3.53;;
65691;SDS011;52411;52.716;6.696;2023-12-20T03:52:34;18.70;;;3.50;;
65691;SDS011;52411;52.716;6.696;2023-12-20T03:54:59;26.88;;;3.85;;
65691;SDS011;52411;52.716;6.696;2023-12-20T03:57:25;29.30;;;4.25;;
65691;SDS011;52411;52.716;6.696;2023-12-20T03:59:50;23.52;;;3.65;;
65691;SDS011;52411;52.716;6.696;2023-12-20T04:02:16;19.75;;;3.53;;
65691;SDS011;52411;52.716;6.696;2023-12-20T04:04:43;22.45;;;3.80;;
65691;SDS011;52411;52.716;6.696;2023-12-20T04:07:08;30.40;;;4.55;;
65691;SDS011;52411;52.716;6.696;2023-12-20T04:09:34;17.30;;;3.53;;
65691;SDS011;52411;52.716;6.696;2023-12-20T04:11:59;24.55;;;3.88;;
65691;SDS011;52411;52.716;6.696;2023-12-20T04:14:25;21.30;;;4.03;;
65691;SDS011;52411;52.716;6.696;2023-12-20T04:16:50;19.02;;;3.75;;
65691;SDS011;52411;52.716;6.696;2023-12-20T04:19:16;19.80;;;4.05;;
65691;SDS011;52411;52.716;6.696;2023-12-20T04:21:41;17.77;;;3.88;;
65691;SDS011;52411;52.716;6.696;2023-12-20T04:24:07;20.77;;;4.10;;
65691;SDS011;52411;52.716;6.696;2023-12-20T04:26:33;17.10;;;3.88;;
65691;SDS011;52411;52.716;6.696;2023-12-20T04:28:58;12.82;;;3.42;;
65691;SDS011;52411;52.716;6.696;2023-12-20T04:31:24;21.75;;;4.65;;
65691;SDS011;52411;52.716;6.696;2023-12-20T04:33:49;19.25;;;3.80;;
65691;SDS011;52411;52.716;6.696;2023-12-20T04:36:15;20.08;;;4.07;;
65691;SDS011;52411;52.716;6.696;2023-12-20T04:38:41;24.98;;;4.10;;
65691;SDS011;52411;52.716;6.696;2023-12-20T04:41:06;27.35;;;4.40;;
65691;SDS011;52411;52.716;6.696;2023-12-20T04:43:32;19.15;;;3.95;;
65691;SDS011;52411;52.716;6.696;2023-12-20T04:45:58;20.58;;;4.38;;
65691;SDS011;52411;52.716;6.696;2023-12-20T04:48:23;23.38;;;3.97;;
65691;SDS011;52411;52.716;6.696;2023-12-20T04:50:49;20.33;;;3.88;;
65691;SDS011;52411;52.716;6.696;2023-12-20T04:53:14;20.23;;;4.30;;
65691;SDS011;52411;52.716;6.696;2023-12-20T04:55:40;18.30;;;4.25;;
65691;SDS011;52411;52.716;6.696;2023-12-20T04:58:05;23.27;;;5.00;;
65691;SDS011;52411;52.716;6.696;2023-12-20T05:00:31;19.55;;;3.92;;
65691;SDS011;52411;52.716;6.696;2023-12-20T05:02:56;21.92;;;4.13;;
65691;SDS011;52411;52.716;6.696;2023-12-20T05:05:22;23.77;;;4.30;;
65691;SDS011;52411;52.716;6.696;2023-12-20T05:07:47;21.90;;;3.88;;
65691;SDS011;52411;52.716;6.696;2023-12-20T05:10:13;18.88;;;4.22;;
65691;SDS011;52411;52.716;6.696;2023-12-20T05:12:38;22.65;;;4.80;;
65691;SDS011;52411;52.716;6.696;2023-12-20T05:15:05;17.95;;;3.92;;
65691;SDS011;52411;52.716;6.696;2023-12-20T05:17:31;20.00;;;4.38;;
65691;SDS011;52411;52.716;6.696;2023-12-20T05:19:57;16.77;;;4.45;;
65691;SDS011;52411;52.716;6.696;2023-12-20T05:22:22;21.98;;;4.18;;
65691;SDS011;52411;52.716;6.696;2023-12-20T05:24:48;25.65;;;4.35;;
65691;SDS011;52411;52.716;6.696;2023-12-20T05:27:14;25.25;;;4.78;;
65691;SDS011;52411;52.716;6.696;2023-12-20T05:29:39;17.55;;;3.80;;
65691;SDS011;52411;52.716;6.696;2023-12-20T05:32:05;22.20;;;4.10;;
65691;SDS011;52411;52.716;6.696;2023-12-20T05:34:31;19.92;;;3.70;;
65691;SDS011;52411;52.716;6.696;2023-12-20T05:36:57;24.00;;;3.85;;
65691;SDS011;52411;52.716;6.696;2023-12-20T05:39:23;18.42;;;4.30;;
65691;SDS011;52411;52.716;6.696;2023-12-20T05:41:48;21.77;;;5.32;;
65691;SDS011;52411;52.716;6.696;2023-12-20T05:44:14;19.45;;;4.07;;
65691;SDS011;52411;52.716;6.696;2023-12-20T05:46:40;24.55;;;4.03;;
65691;SDS011;52411;52.716;6.696;2023-12-20T05:49:06;26.13;;;4.40;;
65691;SDS011;52411;52.716;6.696;2023-12-20T05:54:09;27.02;;;4.05;;
65691;SDS011;52411;52.716;6.696;2023-12-20T05:56:34;21.63;;;4.70;;
65691;SDS011;52411;52.716;6.696;2023-12-20T06:09:51;21.35;;;5.07;;
65691;SDS011;52411;52.716;6.696;2023-12-20T06:12:17;23.50;;;4.47;;
65691;SDS011;52411;52.716;6.696;2023-12-20T06:14:42;27.52;;;4.45;;
65691;SDS011;52411;52.716;6.696;2023-12-20T06:17:08;21.92;;;4.13;;
65691;SDS011;52411;52.716;6.696;2023-12-20T06:32:23;26.52;;;4.55;;
65691;SDS011;52411;52.716;6.696;2023-12-20T06:34:49;25.80;;;4.55;;
65691;SDS011;52411;52.716;6.696;2023-12-20T06:37:15;22.15;;;4.15;;
65691;SDS011;52411;52.716;6.696;2023-12-20T06:39:40;19.10;;;4.00;;
65691;SDS011;52411;52.716;6.696;2023-12-20T06:42:06;23.20;;;4.22;;
65691;SDS011;52411;52.716;6.696;2023-12-20T06:44:32;20.17;;;4.50;;
65691;SDS011;52411;52.716;6.696;2023-12-20T06:49:27;20.42;;;3.92;;
65691;SDS011;52411;52.716;6.696;2023-12-20T06:51:52;24.02;;;4.18;;
65691;SDS011;52411;52.716;6.696;2023-12-20T06:54:18;28.10;;;4.13;;
65691;SDS011;52411;52.716;6.696;2023-12-20T06:56:44;25.80;;;4.60;;
65691;SDS011;52411;52.716;6.696;2023-12-20T06:59:10;21.25;;;4.22;;
65691;SDS011;52411;52.716;6.696;2023-12-20T07:01:35;20.45;;;4.18;;
65691;SDS011;52411;52.716;6.696;2023-12-20T07:04:01;14.38;;;3.92;;
65691;SDS011;52411;52.716;6.696;2023-12-20T07:06:26;20.80;;;4.03;;
65691;SDS011;52411;52.716;6.696;2023-12-20T07:08:52;20.42;;;3.60;;
65691;SDS011;52411;52.716;6.696;2023-12-20T07:11:17;24.38;;;4.57;;
65691;SDS011;52411;52.716;6.696;2023-12-20T07:16:18;22.02;;;3.97;;
65691;SDS011;52411;52.716;6.696;2023-12-20T07:18:44;23.77;;;4.97;;
65691;SDS011;52411;52.716;6.696;2023-12-20T07:21:10;18.10;;;3.92;;
65691;SDS011;52411;52.716;6.696;2023-12-20T07:23:35;18.42;;;3.58;;
65691;SDS011;52411;52.716;6.696;2023-12-20T07:26:01;20.38;;;3.92;;
65691;SDS011;52411;52.716;6.696;2023-12-20T07:38:28;20.98;;;3.70;;
65691;SDS011;52411;52.716;6.696;2023-12-20T07:43:29;17.98;;;3.72;;
65691;SDS011;52411;52.716;6.696;2023-12-20T07:45:54;20.10;;;3.83;;
65691;SDS011;52411;52.716;6.696;2023-12-20T07:48:20;28.35;;;5.78;;
65691;SDS011;52411;52.716;6.696;2023-12-20T07:50:45;18.85;;;3.70;;
65691;SDS011;52411;52.716;6.696;2023-12-20T07:53:11;21.63;;;4.45;;
65691;SDS011;52411;52.716;6.696;2023-12-20T07:58:10;23.33;;;3.92;;
65691;SDS011;52411;52.716;6.696;2023-12-20T08:00:36;18.45;;;4.07;;
65691;SDS011;52411;52.716;6.696;2023-12-20T08:03:01;22.67;;;3.90;;
65691;SDS011;52411;52.716;6.696;2023-12-20T08:05:28;18.17;;;3.58;;
65691;SDS011;52411;52.716;6.696;2023-12-20T08:07:54;23.10;;;4.03;;
65691;SDS011;52411;52.716;6.696;2023-12-20T08:10:19;18.95;;;4.32;;
65691;SDS011;52411;52.716;6.696;2023-12-20T08:12:45;22.58;;;3.92;;
65691;SDS011;52411;52.716;6.696;2023-12-20T08:15:10;21.92;;;4.53;;
65691;SDS011;52411;52.716;6.696;2023-12-20T08:17:36;20.75;;;4.00;;
65691;SDS011;52411;52.716;6.696;2023-12-20T08:20:01;24.80;;;4.60;;
65691;SDS011;52411;52.716;6.696;2023-12-20T08:22:27;18.30;;;4.25;;
65691;SDS011;52411;52.716;6.696;2023-12-20T08:24:52;24.50;;;4.78;;
65691;SDS011;52411;52.716;6.696;2023-12-20T08:27:18;24.05;;;4.93;;
65691;SDS011;52411;52.716;6.696;2023-12-20T08:29:44;24.70;;;4.53;;
65691;SDS011;52411;52.716;6.696;2023-12-20T08:32:10;25.30;;;4.25;;
65691;SDS011;52411;52.716;6.696;2023-12-20T08:34:36;22.48;;;4.25;;
65691;SDS011;52411;52.716;6.696;2023-12-20T08:37:01;25.58;;;4.35;;
65691;SDS011;52411;52.716;6.696;2023-12-20T08:39:27;20.90;;;4.50;;
65691;SDS011;52411;52.716;6.696;2023-12-20T08:41:54;19.80;;;4.20;;
65691;SDS011;52411;52.716;6.696;2023-12-20T08:44:20;22.23;;;4.53;;
65691;SDS011;52411;52.716;6.696;2023-12-20T08:46:47;22.35;;;4.55;;
65691;SDS011;52411;52.716;6.696;2023-12-20T08:49:13;20.88;;;3.63;;
65691;SDS011;52411;52.716;6.696;2023-12-20T08:51:39;15.93;;;3.75;;
65691;SDS011;52411;52.716;6.696;2023-12-20T08:54:06;21.58;;;4.75;;
65691;SDS011;52411;52.716;6.696;2023-12-20T08:56:33;25.80;;;4.90;;
65691;SDS011;52411;52.716;6.696;2023-12-20T08:58:59;24.48;;;5.18;;
65691;SDS011;52411;52.716;6.696;2023-12-20T09:01:24;21.95;;;4.65;;
65691;SDS011;52411;52.716;6.696;2023-12-20T09:03:50;22.77;;;4.20;;
65691;SDS011;52411;52.716;6.696;2023-12-20T09:06:15;27.77;;;4.63;;
65691;SDS011;52411;52.716;6.696;2023-12-20T09:08:41;21.20;;;3.85;;
65691;SDS011;52411;52.716;6.696;2023-12-20T09:11:06;24.75;;;4.65;;
65691;SDS011;52411;52.716;6.696;2023-12-20T09:13:32;19.52;;;3.92;;
65691;SDS011;52411;52.716;6.696;2023-12-20T09:15:58;26.27;;;4.38;;
65691;SDS011;52411;52.716;6.696;2023-12-20T09:18:24;23.85;;;4.35;;
65691;SDS011;52411;52.716;6.696;2023-12-20T09:20:50;16.55;;;4.35;;
65691;SDS011;52411;52.716;6.696;2023-12-20T09:23:16;24.73;;;3.88;;
65691;SDS011;52411;52.716;6.696;2023-12-20T09:25:43;19.75;;;3.95;;
65691;SDS011;52411;52.716;6.696;2023-12-20T09:28:09;20.70;;;3.83;;
65691;SDS011;52411;52.716;6.696;2023-12-20T09:30:35;25.63;;;4.30;;
65691;SDS011;52411;52.716;6.696;2023-12-20T09:33:04;20.67;;;4.25;;
65691;SDS011;52411;52.716;6.696;2023-12-20T09:35:31;23.08;;;4.97;;
65691;SDS011;52411;52.716;6.696;2023-12-20T09:37:57;19.02;;;4.03;;
65691;SDS011;52411;52.716;6.696;2023-12-20T09:40:23;21.02;;;4.88;;
65691;SDS011;52411;52.716;6.696;2023-12-20T09:42:58;17.10;;;3.70;;
65691;SDS011;52411;52.716;6.696;2023-12-20T09:45:28;23.50;;;4.68;;
65691;SDS011;52411;52.716;6.696;2023-12-20T09:47:56;21.60;;;4.53;;
65691;SDS011;52411;52.716;6.696;2023-12-20T09:50:23;17.88;;;4.20;;
65691;SDS011;52411;52.716;6.696;2023-12-20T09:52:52;16.80;;;3.67;;
65691;SDS011;52411;52.716;6.696;2023-12-20T09:55:19;26.00;;;4.95;;
65691;SDS011;52411;52.716;6.696;2023-12-20T09:57:45;19.52;;;4.20;;
65691;SDS011;52411;52.716;6.696;2023-12-20T10:00:12;17.77;;;4.32;;
65691;SDS011;52411;52.716;6.696;2023-12-20T10:02:38;19.38;;;4.10;;
65691;SDS011;52411;52.716;6.696;2023-12-20T10:05:10;13.52;;;4.10;;
65691;SDS011;52411;52.716;6.696;2023-12-20T10:07:44;19.17;;;4.28;;
65691;SDS011;52411;52.716;6.696;2023-12-20T10:10:10;27.65;;;5.40;;
65691;SDS011;52411;52.716;6.696;2023-12-20T10:12:37;16.95;;;4.40;;
65691;SDS011;52411;52.716;6.696;2023-12-20T10:15:03;20.67;;;4.30;;
65691;SDS011;52411;52.716;6.696;2023-12-20T10:17:29;10.05;;;2.40;;
65691;SDS011;52411;52.716;6.696;2023-12-20T10:19:56;7.03;;;2.28;;
65691;SDS011;52411;52.716;6.696;2023-12-20T10:22:22;6.10;;;1.65;;
65691;SDS011;52411;52.716;6.696;2023-12-20T10:24:47;12.10;;;1.73;;
65691;SDS011;52411;52.716;6.696;2023-12-20T10:27:13;4.97;;;1.42;;
65691;SDS011;52411;52.716;6.696;2023-12-20T10:29:38;5.35;;;1.30;;
65691;SDS011;52411;52.716;6.696;2023-12-20T10:32:37;9.25;;;1.88;;
65691;SDS011;52411;52.716;6.696;2023-12-20T10:34:56;9.25;;;1.40;;
65691;SDS011;52411;52.716;6.696;2023-12-20T10:37:22;8.60;;;1.95;;
65691;SDS011;52411;52.716;6.696;2023-12-20T10:39:51;5.25;;;1.45;;
65691;SDS011;52411;52.716;6.696;2023-12-20T10:42:21;6.47;;;1.65;;
65691;SDS011;52411;52.716;6.696;2023-12-20T10:44:48;6.65;;;1.65;;
65691;SDS011;52411;52.716;6.696;2023-12-20T10:47:14;4.95;;;1.35;;
65691;SDS011;52411;52.716;6.696;2023-12-20T10:49:40;10.15;;;1.67;;
65691;SDS011;52411;52.716;6.696;2023-12-20T10:52:07;5.38;;;1.67;;
65691;SDS011;52411;52.716;6.696;2023-12-20T10:54:34;7.45;;;1.58;;
65691;SDS011;52411;52.716;6.696;2023-12-20T10:56:59;9.70;;;1.80;;
65691;SDS011;52411;52.716;6.696;2023-12-20T10:59:29;7.97;;;1.63;;
65691;SDS011;52411;52.716;6.696;2023-12-20T11:02:02;8.40;;;1.65;;
65691;SDS011;52411;52.716;6.696;2023-12-20T11:07:15;11.27;;;2.07;;
65691;SDS011;52411;52.716;6.696;2023-12-20T11:09:58;6.50;;;2.00;;
65691;SDS011;52411;52.716;6.696;2023-12-20T11:12:32;8.10;;;1.88;;
65691;SDS011;52411;52.716;6.696;2023-12-20T11:15:05;8.50;;;1.80;;
65691;SDS011;52411;52.716;6.696;2023-12-20T11:17:32;11.05;;;2.15;;
65691;SDS011;52411;52.716;6.696;2023-12-20T11:22:24;8.70;;;1.80;;
65691;SDS011;52411;52.716;6.696;2023-12-20T11:24:51;10.45;;;1.95;;
65691;SDS011;52411;52.716;6.696;2023-12-20T11:27:18;7.88;;;1.60;;
65691;SDS011;52411;52.716;6.696;2023-12-20T11:29:51;8.77;;;2.25;;
65691;SDS011;52411;52.716;6.696;2023-12-20T11:34:59;9.05;;;1.70;;
65691;SDS011;52411;52.716;6.696;2023-12-20T11:37:29;7.63;;;1.85;;
65691;SDS011;52411;52.716;6.696;2023-12-20T11:40:17;8.23;;;1.55;;
65691;SDS011;52411;52.716;6.696;2023-12-20T11:42:48;5.47;;;1.60;;
65691;SDS011;52411;52.716;6.696;2023-12-20T11:45:15;9.93;;;1.40;;
65691;SDS011;52411;52.716;6.696;2023-12-20T11:47:45;8.88;;;1.80;;
65691;SDS011;52411;52.716;6.696;2023-12-20T11:50:12;10.25;;;1.42;;
65691;SDS011;52411;52.716;6.696;2023-12-20T11:52:38;4.75;;;1.80;;
65691;SDS011;52411;52.716;6.696;2023-12-20T11:55:04;9.52;;;1.65;;
65691;SDS011;52411;52.716;6.696;2023-12-20T11:57:30;6.70;;;1.58;;
65691;SDS011;52411;52.716;6.696;2023-12-20T11:59:56;7.93;;;1.65;;
65691;SDS011;52411;52.716;6.696;2023-12-20T12:02:22;9.00;;;1.70;;
65691;SDS011;52411;52.716;6.696;2023-12-20T12:04:49;10.57;;;2.08;;
65691;SDS011;52411;52.716;6.696;2023-12-20T12:07:15;13.85;;;2.20;;
65691;SDS011;52411;52.716;6.696;2023-12-20T12:09:42;6.05;;;1.60;;
65691;SDS011;52411;52.716;6.696;2023-12-20T12:12:08;10.65;;;1.92;;
65691;SDS011;52411;52.716;6.696;2023-12-20T12:14:34;8.40;;;2.00;;
65691;SDS011;52411;52.716;6.696;2023-12-20T12:17:02;11.45;;;1.90;;
65691;SDS011;52411;52.716;6.696;2023-12-20T12:19:28;9.73;;;1.58;;
65691;SDS011;52411;52.716;6.696;2023-12-20T12:22:15;10.40;;;1.98;;
65691;SDS011;52411;52.716;6.696;2023-12-20T12:24:41;9.77;;;1.85;;
65691;SDS011;52411;52.716;6.696;2023-12-20T12:27:08;5.70;;;1.80;;
65691;SDS011;52411;52.716;6.696;2023-12-20T12:29:34;7.50;;;1.67;;
65691;SDS011;52411;52.716;6.696;2023-12-20T12:32:00;9.75;;;1.92;;
65691;SDS011;52411;52.716;6.696;2023-12-20T12:34:29;9.75;;;1.92;;
65691;SDS011;52411;52.716;6.696;2023-12-20T12:36:55;12.45;;;1.90;;
65691;SDS011;52411;52.716;6.696;2023-12-20T12:39:22;8.68;;;1.67;;
65691;SDS011;52411;52.716;6.696;2023-12-20T12:41:52;12.93;;;1.80;;
65691;SDS011;52411;52.716;6.696;2023-12-20T12:44:18;7.72;;;1.95;;
65691;SDS011;52411;52.716;6.696;2023-12-20T12:46:47;9.88;;;1.55;;
65691;SDS011;52411;52.716;6.696;2023-12-20T12:49:18;11.77;;;1.90;;
65691;SDS011;52411;52.716;6.696;2023-12-20T12:51:47;7.00;;;1.95;;
65691;SDS011;52411;52.716;6.696;2023-12-20T12:54:12;7.70;;;1.52;;
65691;SDS011;52411;52.716;6.696;2023-12-20T12:56:40;10.02;;;2.05;;
65691;SDS011;52411;52.716;6.696;2023-12-20T12:59:06;9.73;;;1.95;;
65691;SDS011;52411;52.716;6.696;2023-12-20T13:01:31;8.50;;;2.25;;
65691;SDS011;52411;52.716;6.696;2023-12-20T13:03:57;7.13;;;1.90;;
65691;SDS011;52411;52.716;6.696;2023-12-20T13:06:23;8.27;;;1.50;;
65691;SDS011;52411;52.716;6.696;2023-12-20T13:08:48;6.93;;;2.28;;
65691;SDS011;52411;52.716;6.696;2023-12-20T13:11:14;10.10;;;2.05;;
65691;SDS011;52411;52.716;6.696;2023-12-20T13:13:40;7.90;;;1.70;;
65691;SDS011;52411;52.716;6.696;2023-12-20T13:16:05;8.02;;;1.90;;
65691;SDS011;52411;52.716;6.696;2023-12-20T13:18:31;10.20;;;1.90;;
65691;SDS011;52411;52.716;6.696;2023-12-20T13:20:57;11.18;;;2.10;;
65691;SDS011;52411;52.716;6.696;2023-12-20T13:23:22;13.82;;;2.10;;
65691;SDS011;52411;52.716;6.696;2023-12-20T13:25:48;7.68;;;1.73;;
65691;SDS011;52411;52.716;6.696;2023-12-20T13:28:13;10.93;;;1.80;;
65691;SDS011;52411;52.716;6.696;2023-12-20T13:30:39;9.20;;;1.95;;
65691;SDS011;52411;52.716;6.696;2023-12-20T13:33:05;9.75;;;2.15;;
65691;SDS011;52411;52.716;6.696;2023-12-20T13:35:31;7.80;;;1.52;;
65691;SDS011;52411;52.716;6.696;2023-12-20T13:37:58;7.80;;;2.47;;
65691;SDS011;52411;52.716;6.696;2023-12-20T13:40:25;6.57;;;1.60;;
65691;SDS011;52411;52.716;6.696;2023-12-20T13:42:51;8.63;;;1.80;;
65691;SDS011;52411;52.716;6.696;2023-12-20T13:45:17;6.38;;;2.15;;
65691;SDS011;52411;52.716;6.696;2023-12-20T13:47:42;11.32;;;1.83;;
65691;SDS011;52411;52.716;6.696;2023-12-20T13:50:08;9.27;;;1.73;;
65691;SDS011;52411;52.716;6.696;2023-12-20T13:52:34;8.40;;;1.83;;
65691;SDS011;52411;52.716;6.696;2023-12-20T13:55:00;8.57;;;1.70;;
65691;SDS011;52411;52.716;6.696;2023-12-20T13:57:25;7.40;;;1.75;;
65691;SDS011;52411;52.716;6.696;2023-12-20T13:59:51;8.55;;;1.90;;
65691;SDS011;52411;52.716;6.696;2023-12-20T14:02:16;8.00;;;1.60;;
65691;SDS011;52411;52.716;6.696;2023-12-20T14:04:42;5.32;;;1.40;;
65691;SDS011;52411;52.716;6.696;2023-12-20T14:13:59;9.50;;;2.20;;
65691;SDS011;52411;52.716;6.696;2023-12-20T14:16:26;9.30;;;2.20;;
65691;SDS011;52411;52.716;6.696;2023-12-20T14:18:52;7.10;;;1.60;;
65691;SDS011;52411;52.716;6.696;2023-12-20T14:21:18;7.65;;;1.40;;
65691;SDS011;52411;52.716;6.696;2023-12-20T14:23:44;4.47;;;1.42;;
65691;SDS011;52411;52.716;6.696;2023-12-20T14:26:11;4.45;;;1.65;;
65691;SDS011;52411;52.716;6.696;2023-12-20T14:28:40;6.90;;;1.90;;
65691;SDS011;52411;52.716;6.696;2023-12-20T14:34:53;6.35;;;1.90;;
65691;SDS011;52411;52.716;6.696;2023-12-20T14:37:20;7.60;;;1.80;;
65691;SDS011;52411;52.716;6.696;2023-12-20T14:39:45;11.57;;;2.17;;
65691;SDS011;52411;52.716;6.696;2023-12-20T14:42:11;6.85;;;1.77;;
65691;SDS011;52411;52.716;6.696;2023-12-20T14:44:39;8.18;;;2.10;;
65691;SDS011;52411;52.716;6.696;2023-12-20T14:47:06;8.40;;;2.10;;
65691;SDS011;52411;52.716;6.696;2023-12-20T14:49:32;10.90;;;2.45;;
65691;SDS011;52411;52.716;6.696;2023-12-20T14:51:57;6.53;;;2.22;;
65691;SDS011;52411;52.716;6.696;2023-12-20T14:54:24;8.52;;;2.58;;
65691;SDS011;52411;52.716;6.696;2023-12-20T14:56:50;11.50;;;2.78;;
65691;SDS011;52411;52.716;6.696;2023-12-20T14:59:15;11.18;;;2.72;;
65691;SDS011;52411;52.716;6.696;2023-12-20T15:01:41;10.07;;;3.05;;
65691;SDS011;52411;52.716;6.696;2023-12-20T15:04:07;13.13;;;3.33;;
65691;SDS011;52411;52.716;6.696;2023-12-20T15:06:33;12.63;;;3.70;;
65691;SDS011;52411;52.716;6.696;2023-12-20T15:08:59;16.27;;;3.85;;
65691;SDS011;52411;52.716;6.696;2023-12-20T15:11:25;20.25;;;3.67;;
65691;SDS011;52411;52.716;6.696;2023-12-20T15:13:51;15.10;;;3.38;;
65691;SDS011;52411;52.716;6.696;2023-12-20T15:16:21;16.60;;;3.70;;
65691;SDS011;52411;52.716;6.696;2023-12-20T15:18:47;16.70;;;3.60;;
65691;SDS011;52411;52.716;6.696;2023-12-20T15:21:14;23.45;;;3.80;;
65691;SDS011;52411;52.716;6.696;2023-12-20T15:23:39;16.77;;;3.30;;
65691;SDS011;52411;52.716;6.696;2023-12-20T15:26:08;18.58;;;3.92;;
65691;SDS011;52411;52.716;6.696;2023-12-20T15:28:34;21.02;;;4.05;;
65691;SDS011;52411;52.716;6.696;2023-12-20T15:30:59;17.67;;;3.45;;
65691;SDS011;52411;52.716;6.696;2023-12-20T15:33:25;29.02;;;4.00;;
65691;SDS011;52411;52.716;6.696;2023-12-20T15:35:50;18.65;;;3.67;;
65691;SDS011;52411;52.716;6.696;2023-12-20T15:38:16;16.00;;;3.22;;